Αρχική σελίδα
METAR-TAF:

METAR-TAF

Αεροδρόμια :

Jayapura, Ινδονησία

γεωγραφικό πλάτος: 02-34-37S, γεωγραφικό μήκος: 140-30-58E, υψόμετρο: 88 μ

Παρών καιρός

Η αναφορά έγινε 30 λεπτά πριν, στις 11:00 UTC
Άνεμος 2 kt από μεταβλητές κατευθύνσεις
Θερμοκρασία 26°C
Υγρασία 94%
Πίεση 1009 hPa
Ορατότητα 10 χλμ και άνω
Λίγα νέφη σε ύψος 1300 πόδια

METAR: WAJJ 251100Z VRB02KT 9999 FEW013 26/25 Q1009

Χρόνος: 18:30 (11:30 UTC)


TAF: λείπει

Μετεωρολογικές αναφορές και προγνώσεις για περισσότερα από 4000 αεροδρόμια (δελτία METAR και TAF).

Οι διαθέσιμοι σταθμοί απεικονίζονται στο χάρτη με κίτρινες και κόκκινες κουκκίδες.

Μετακινήστε το ποντίκι πάνω από τις κουκκίδες για να δείτε το όνομα του σταθμού.

Στη συνέχεια, κάντε κλικ για να δείτε τις μετεωρολογικές αναφορές και τις προγνώσεις καιρού.

Για να αλλάξετε το χάρτη: κάντε κλικ στα πράσινα κουμπιά με τον μαύρο σταυρό για να ζουμάρετε, στο πράσινο κουμπί με την παύλα για να αφαιρέσετε το ζουμ ή στα πράσινα βέλη για να αντιπαραβάλλετε χάρτες.


METAR-TAF: